sensor_id;sensor_type;location;lat;lon;timestamp;temperature;humidity
3466;DHT22;1747;48.884;9.160;2024-01-15T00:00:33;-0.60;99.90
3466;DHT22;1747;48.884;9.160;2024-01-15T00:02:59;-0.70;99.90
3466;DHT22;1747;48.884;9.160;2024-01-15T00:05:26;-0.80;99.90
3466;DHT22;1747;48.884;9.160;2024-01-15T00:07:54;-0.80;99.90
3466;DHT22;1747;48.884;9.160;2024-01-15T00:10:21;-0.80;99.90
3466;DHT22;1747;48.884;9.160;2024-01-15T00:12:48;-0.90;99.90
3466;DHT22;1747;48.884;9.160;2024-01-15T00:15:15;-0.90;99.90
3466;DHT22;1747;48.884;9.160;2024-01-15T00:17:42;-0.90;99.90
3466;DHT22;1747;48.884;9.160;2024-01-15T00:20:09;-0.90;99.90
3466;DHT22;1747;48.884;9.160;2024-01-15T00:22:36;-0.90;99.90
3466;DHT22;1747;48.884;9.160;2024-01-15T00:25:05;-0.90;99.90
3466;DHT22;1747;48.884;9.160;2024-01-15T00:27:32;-1.00;99.90
3466;DHT22;1747;48.884;9.160;2024-01-15T00:29:59;-1.00;99.90
3466;DHT22;1747;48.884;9.160;2024-01-15T00:32:25;-1.00;99.90
3466;DHT22;1747;48.884;9.160;2024-01-15T00:34:52;-1.00;99.90
3466;DHT22;1747;48.884;9.160;2024-01-15T00:37:19;-1.00;99.90
3466;DHT22;1747;48.884;9.160;2024-01-15T00:39:46;-1.00;99.90
3466;DHT22;1747;48.884;9.160;2024-01-15T00:42:14;-1.10;99.90
3466;DHT22;1747;48.884;9.160;2024-01-15T00:44:41;-1.10;99.90
3466;DHT22;1747;48.884;9.160;2024-01-15T00:47:08;-1.00;99.90
3466;DHT22;1747;48.884;9.160;2024-01-15T00:49:35;-1.00;99.90
3466;DHT22;1747;48.884;9.160;2024-01-15T00:52:02;-0.90;99.90
3466;DHT22;1747;48.884;9.160;2024-01-15T00:54:28;-0.80;99.90
3466;DHT22;1747;48.884;9.160;2024-01-15T00:56:55;-0.80;99.90
3466;DHT22;1747;48.884;9.160;2024-01-15T00:59:23;-0.80;99.90
3466;DHT22;1747;48.884;9.160;2024-01-15T01:01:50;-0.80;99.90
3466;DHT22;1747;48.884;9.160;2024-01-15T01:04:17;-0.80;99.90
3466;DHT22;1747;48.884;9.160;2024-01-15T01:06:43;-0.70;99.90
3466;DHT22;1747;48.884;9.160;2024-01-15T01:09:10;-0.70;99.90
3466;DHT22;1747;48.884;9.160;2024-01-15T01:11:37;-0.60;99.90
3466;DHT22;1747;48.884;9.160;2024-01-15T01:14:04;-0.50;99.90
3466;DHT22;1747;48.884;9.160;2024-01-15T01:16:32;-0.40;99.90
3466;DHT22;1747;48.884;9.160;2024-01-15T01:19:04;-0.30;99.90
3466;DHT22;1747;48.884;9.160;2024-01-15T01:21:31;-0.30;99.90
3466;DHT22;1747;48.884;9.160;2024-01-15T01:23:57;-0.30;99.90
3466;DHT22;1747;48.884;9.160;2024-01-15T01:26:24;-0.20;99.90
3466;DHT22;1747;48.884;9.160;2024-01-15T01:28:51;-0.20;99.90
3466;DHT22;1747;48.884;9.160;2024-01-15T01:31:18;-0.20;99.90
3466;DHT22;1747;48.884;9.160;2024-01-15T01:33:46;-0.20;99.90
3466;DHT22;1747;48.884;9.160;2024-01-15T01:36:13;-0.10;99.90
3466;DHT22;1747;48.884;9.160;2024-01-15T01:38:40;-0.10;99.90
3466;DHT22;1747;48.884;9.160;2024-01-15T01:41:07;-0.10;99.90
3466;DHT22;1747;48.884;9.160;2024-01-15T01:43:34;-0.10;99.90
3466;DHT22;1747;48.884;9.160;2024-01-15T01:46:01;0.00;99.90
3466;DHT22;1747;48.884;9.160;2024-01-15T01:48:29;-0.10;99.90
3466;DHT22;1747;48.884;9.160;2024-01-15T01:50:59;0.00;99.90
3466;DHT22;1747;48.884;9.160;2024-01-15T01:53:26;0.00;99.90
3466;DHT22;1747;48.884;9.160;2024-01-15T01:55:54;0.10;99.90
3466;DHT22;1747;48.884;9.160;2024-01-15T01:58:22;0.10;99.90
3466;DHT22;1747;48.884;9.160;2024-01-15T02:00:49;0.20;99.90
3466;DHT22;1747;48.884;9.160;2024-01-15T02:03:16;0.20;99.90
3466;DHT22;1747;48.884;9.160;2024-01-15T02:05:43;0.20;99.90
3466;DHT22;1747;48.884;9.160;2024-01-15T02:08:12;0.30;99.90
3466;DHT22;1747;48.884;9.160;2024-01-15T02:10:39;0.30;99.90
3466;DHT22;1747;48.884;9.160;2024-01-15T02:13:06;0.20;99.90
3466;DHT22;1747;48.884;9.160;2024-01-15T02:15:32;0.10;99.90
3466;DHT22;1747;48.884;9.160;2024-01-15T02:18:00;0.10;99.90
3466;DHT22;1747;48.884;9.160;2024-01-15T02:20:28;0.20;99.90
3466;DHT22;1747;48.884;9.160;2024-01-15T02:23:08;0.20;99.90
3466;DHT22;1747;48.884;9.160;2024-01-15T02:25:36;0.20;99.90
3466;DHT22;1747;48.884;9.160;2024-01-15T02:28:04;0.30;99.90
3466;DHT22;1747;48.884;9.160;2024-01-15T02:30:32;0.20;99.90
3466;DHT22;1747;48.884;9.160;2024-01-15T02:32:59;0.30;99.90
3466;DHT22;1747;48.884;9.160;2024-01-15T02:35:26;0.30;99.90
3466;DHT22;1747;48.884;9.160;2024-01-15T02:37:52;0.30;99.90
3466;DHT22;1747;48.884;9.160;2024-01-15T02:40:20;0.40;99.90
3466;DHT22;1747;48.884;9.160;2024-01-15T02:42:47;0.40;99.90
3466;DHT22;1747;48.884;9.160;2024-01-15T02:45:14;0.30;99.90
3466;DHT22;1747;48.884;9.160;2024-01-15T02:47:41;0.30;99.90
3466;DHT22;1747;48.884;9.160;2024-01-15T02:50:08;0.40;99.90
3466;DHT22;1747;48.884;9.160;2024-01-15T02:52:35;0.30;99.90
3466;DHT22;1747;48.884;9.160;2024-01-15T02:55:01;0.40;99.90
3466;DHT22;1747;48.884;9.160;2024-01-15T02:57:30;0.40;99.90
3466;DHT22;1747;48.884;9.160;2024-01-15T02:59:56;0.40;99.90
3466;DHT22;1747;48.884;9.160;2024-01-15T03:02:23;0.40;99.90
3466;DHT22;1747;48.884;9.160;2024-01-15T03:04:50;0.40;99.90
3466;DHT22;1747;48.884;9.160;2024-01-15T03:07:17;0.40;99.90
3466;DHT22;1747;48.884;9.160;2024-01-15T03:09:44;0.40;99.90
3466;DHT22;1747;48.884;9.160;2024-01-15T03:12:11;0.40;99.90
3466;DHT22;1747;48.884;9.160;2024-01-15T03:14:39;0.50;99.90
3466;DHT22;1747;48.884;9.160;2024-01-15T03:17:06;0.30;99.90
3466;DHT22;1747;48.884;9.160;2024-01-15T03:19:34;0.40;99.90
3466;DHT22;1747;48.884;9.160;2024-01-15T03:22:01;0.40;99.90
3466;DHT22;1747;48.884;9.160;2024-01-15T03:24:29;0.60;99.90
3466;DHT22;1747;48.884;9.160;2024-01-15T03:26:56;0.60;99.90
3466;DHT22;1747;48.884;9.160;2024-01-15T03:29:23;0.60;99.90
3466;DHT22;1747;48.884;9.160;2024-01-15T03:31:51;0.60;99.90
3466;DHT22;1747;48.884;9.160;2024-01-15T03:34:18;0.60;99.90
3466;DHT22;1747;48.884;9.160;2024-01-15T03:36:44;0.60;99.90
3466;DHT22;1747;48.884;9.160;2024-01-15T03:39:11;0.60;99.90
3466;DHT22;1747;48.884;9.160;2024-01-15T03:41:38;0.60;99.90
3466;DHT22;1747;48.884;9.160;2024-01-15T03:44:05;0.60;99.90
3466;DHT22;1747;48.884;9.160;2024-01-15T03:46:32;0.50;99.90
3466;DHT22;1747;48.884;9.160;2024-01-15T03:49:00;0.50;99.90
3466;DHT22;1747;48.884;9.160;2024-01-15T03:51:27;0.50;99.90
3466;DHT22;1747;48.884;9.160;2024-01-15T03:53:54;0.40;99.90
3466;DHT22;1747;48.884;9.160;2024-01-15T03:56:21;0.50;99.90
3466;DHT22;1747;48.884;9.160;2024-01-15T03:58:48;0.70;99.90
3466;DHT22;1747;48.884;9.160;2024-01-15T04:01:14;0.80;99.90
3466;DHT22;1747;48.884;9.160;2024-01-15T04:03:41;0.80;99.90
3466;DHT22;1747;48.884;9.160;2024-01-15T04:06:09;0.80;99.90
3466;DHT22;1747;48.884;9.160;2024-01-15T04:08:36;0.80;99.90
3466;DHT22;1747;48.884;9.160;2024-01-15T04:11:03;0.90;99.90
3466;DHT22;1747;48.884;9.160;2024-01-15T04:13:32;0.90;99.90
3466;DHT22;1747;48.884;9.160;2024-01-15T04:16:00;1.00;99.90
3466;DHT22;1747;48.884;9.160;2024-01-15T04:18:27;1.00;99.90
3466;DHT22;1747;48.884;9.160;2024-01-15T04:20:53;1.00;99.90
3466;DHT22;1747;48.884;9.160;2024-01-15T04:23:22;0.90;99.90
3466;DHT22;1747;48.884;9.160;2024-01-15T04:25:49;0.90;99.90
3466;DHT22;1747;48.884;9.160;2024-01-15T04:28:15;1.00;99.90
3466;DHT22;1747;48.884;9.160;2024-01-15T04:30:42;1.00;99.90
3466;DHT22;1747;48.884;9.160;2024-01-15T04:33:09;1.00;99.90
3466;DHT22;1747;48.884;9.160;2024-01-15T04:35:37;1.10;99.90
3466;DHT22;1747;48.884;9.160;2024-01-15T04:38:04;1.10;99.90
3466;DHT22;1747;48.884;9.160;2024-01-15T04:40:32;1.10;99.90
3466;DHT22;1747;48.884;9.160;2024-01-15T04:42:58;1.10;99.90
3466;DHT22;1747;48.884;9.160;2024-01-15T04:45:25;1.20;99.90
3466;DHT22;1747;48.884;9.160;2024-01-15T04:47:54;1.20;99.90
3466;DHT22;1747;48.884;9.160;2024-01-15T04:50:21;1.30;99.90
3466;DHT22;1747;48.884;9.160;2024-01-15T04:52:49;1.30;99.90
3466;DHT22;1747;48.884;9.160;2024-01-15T04:55:16;1.30;99.90
3466;DHT22;1747;48.884;9.160;2024-01-15T04:57:44;1.40;99.90
3466;DHT22;1747;48.884;9.160;2024-01-15T05:00:12;1.40;99.90
3466;DHT22;1747;48.884;9.160;2024-01-15T05:02:39;1.50;99.90
3466;DHT22;1747;48.884;9.160;2024-01-15T05:05:06;1.50;99.90
3466;DHT22;1747;48.884;9.160;2024-01-15T05:07:33;1.50;99.90
3466;DHT22;1747;48.884;9.160;2024-01-15T05:10:00;1.50;99.90
3466;DHT22;1747;48.884;9.160;2024-01-15T05:12:27;1.50;99.90
3466;DHT22;1747;48.884;9.160;2024-01-15T05:14:55;1.40;99.90
3466;DHT22;1747;48.884;9.160;2024-01-15T05:17:21;1.30;99.90
3466;DHT22;1747;48.884;9.160;2024-01-15T05:19:48;1.20;99.90
3466;DHT22;1747;48.884;9.160;2024-01-15T05:22:15;1.20;99.90
3466;DHT22;1747;48.884;9.160;2024-01-15T05:24:42;1.30;99.90
3466;DHT22;1747;48.884;9.160;2024-01-15T05:27:09;1.40;99.90
3466;DHT22;1747;48.884;9.160;2024-01-15T05:29:35;1.50;99.90
3466;DHT22;1747;48.884;9.160;2024-01-15T05:32:04;1.50;99.90
3466;DHT22;1747;48.884;9.160;2024-01-15T05:34:30;1.50;99.90
3466;DHT22;1747;48.884;9.160;2024-01-15T05:36:57;1.60;99.90
3466;DHT22;1747;48.884;9.160;2024-01-15T05:39:24;1.60;99.90
3466;DHT22;1747;48.884;9.160;2024-01-15T05:41:51;1.60;99.90
3466;DHT22;1747;48.884;9.160;2024-01-15T05:44:17;1.60;99.90
3466;DHT22;1747;48.884;9.160;2024-01-15T05:46:44;1.60;99.90
3466;DHT22;1747;48.884;9.160;2024-01-15T05:49:12;1.60;99.90
3466;DHT22;1747;48.884;9.160;2024-01-15T05:51:39;1.60;99.90
3466;DHT22;1747;48.884;9.160;2024-01-15T05:54:06;1.60;99.90
3466;DHT22;1747;48.884;9.160;2024-01-15T05:56:33;1.60;99.90
3466;DHT22;1747;48.884;9.160;2024-01-15T05:59:00;1.60;99.90
3466;DHT22;1747;48.884;9.160;2024-01-15T06:01:27;1.60;99.90
3466;DHT22;1747;48.884;9.160;2024-01-15T06:03:53;1.60;99.90
3466;DHT22;1747;48.884;9.160;2024-01-15T06:06:22;1.60;99.90
3466;DHT22;1747;48.884;9.160;2024-01-15T06:08:48;1.60;99.90
3466;DHT22;1747;48.884;9.160;2024-01-15T06:11:15;1.60;99.90
3466;DHT22;1747;48.884;9.160;2024-01-15T06:13:42;1.60;99.90
3466;DHT22;1747;48.884;9.160;2024-01-15T06:16:13;1.70;99.90
3466;DHT22;1747;48.884;9.160;2024-01-15T06:18:41;1.70;99.90
3466;DHT22;1747;48.884;9.160;2024-01-15T06:21:07;1.60;99.90
3466;DHT22;1747;48.884;9.160;2024-01-15T06:23:37;1.60;99.90
3466;DHT22;1747;48.884;9.160;2024-01-15T06:26:04;1.60;99.90
3466;DHT22;1747;48.884;9.160;2024-01-15T06:28:31;1.60;99.90
3466;DHT22;1747;48.884;9.160;2024-01-15T06:30:58;1.50;99.90
3466;DHT22;1747;48.884;9.160;2024-01-15T06:33:24;1.50;99.90
3466;DHT22;1747;48.884;9.160;2024-01-15T06:35:51;1.50;99.90
3466;DHT22;1747;48.884;9.160;2024-01-15T06:38:18;1.50;99.90
3466;DHT22;1747;48.884;9.160;2024-01-15T06:40:46;1.50;99.90
3466;DHT22;1747;48.884;9.160;2024-01-15T06:43:14;1.50;99.90
3466;DHT22;1747;48.884;9.160;2024-01-15T06:45:41;1.60;99.90
3466;DHT22;1747;48.884;9.160;2024-01-15T06:48:07;1.70;99.90
3466;DHT22;1747;48.884;9.160;2024-01-15T06:50:34;1.60;99.90
3466;DHT22;1747;48.884;9.160;2024-01-15T06:53:01;1.70;99.90
3466;DHT22;1747;48.884;9.160;2024-01-15T06:55:28;1.70;99.90
3466;DHT22;1747;48.884;9.160;2024-01-15T06:57:56;1.60;99.90
3466;DHT22;1747;48.884;9.160;2024-01-15T07:00:23;1.50;99.90
3466;DHT22;1747;48.884;9.160;2024-01-15T07:02:49;1.60;99.90
3466;DHT22;1747;48.884;9.160;2024-01-15T07:05:17;1.60;99.90
3466;DHT22;1747;48.884;9.160;2024-01-15T07:07:44;1.70;99.90
3466;DHT22;1747;48.884;9.160;2024-01-15T07:10:11;1.80;99.90
3466;DHT22;1747;48.884;9.160;2024-01-15T07:12:38;1.80;99.90
3466;DHT22;1747;48.884;9.160;2024-01-15T07:15:06;1.80;99.90
3466;DHT22;1747;48.884;9.160;2024-01-15T07:17:33;1.80;99.90
3466;DHT22;1747;48.884;9.160;2024-01-15T07:20:00;1.80;99.90
3466;DHT22;1747;48.884;9.160;2024-01-15T07:22:27;1.80;99.90
3466;DHT22;1747;48.884;9.160;2024-01-15T07:24:55;1.80;99.90
3466;DHT22;1747;48.884;9.160;2024-01-15T07:27:21;1.90;99.90
3466;DHT22;1747;48.884;9.160;2024-01-15T07:29:48;1.80;99.90
3466;DHT22;1747;48.884;9.160;2024-01-15T07:32:16;1.90;99.90
3466;DHT22;1747;48.884;9.160;2024-01-15T07:34:43;1.90;99.90
3466;DHT22;1747;48.884;9.160;2024-01-15T07:37:10;1.80;99.90
3466;DHT22;1747;48.884;9.160;2024-01-15T07:39:37;1.80;99.90
3466;DHT22;1747;48.884;9.160;2024-01-15T07:42:04;1.80;99.90
3466;DHT22;1747;48.884;9.160;2024-01-15T07:44:31;1.80;99.90
3466;DHT22;1747;48.884;9.160;2024-01-15T07:46:58;1.90;99.90
3466;DHT22;1747;48.884;9.160;2024-01-15T07:49:26;1.90;99.90
3466;DHT22;1747;48.884;9.160;2024-01-15T07:51:53;1.90;99.90
3466;DHT22;1747;48.884;9.160;2024-01-15T07:54:19;1.90;99.90
3466;DHT22;1747;48.884;9.160;2024-01-15T07:56:56;1.90;99.90
3466;DHT22;1747;48.884;9.160;2024-01-15T07:59:23;1.90;99.90
3466;DHT22;1747;48.884;9.160;2024-01-15T08:01:52;1.90;99.90
3466;DHT22;1747;48.884;9.160;2024-01-15T08:04:19;1.90;99.90
3466;DHT22;1747;48.884;9.160;2024-01-15T08:06:47;1.90;99.90
3466;DHT22;1747;48.884;9.160;2024-01-15T08:09:14;1.90;99.90
3466;DHT22;1747;48.884;9.160;2024-01-15T08:11:41;2.00;99.90
3466;DHT22;1747;48.884;9.160;2024-01-15T08:14:09;2.00;99.90
3466;DHT22;1747;48.884;9.160;2024-01-15T08:16:36;2.00;99.90
3466;DHT22;1747;48.884;9.160;2024-01-15T08:19:02;2.10;99.90
3466;DHT22;1747;48.884;9.160;2024-01-15T08:21:29;2.10;99.90
3466;DHT22;1747;48.884;9.160;2024-01-15T08:23:59;2.10;99.90
3466;DHT22;1747;48.884;9.160;2024-01-15T08:26:26;2.10;99.90
3466;DHT22;1747;48.884;9.160;2024-01-15T08:28:53;2.10;99.90
3466;DHT22;1747;48.884;9.160;2024-01-15T08:31:19;2.20;99.90
3466;DHT22;1747;48.884;9.160;2024-01-15T08:33:46;2.20;99.90
3466;DHT22;1747;48.884;9.160;2024-01-15T08:36:13;2.30;99.90
3466;DHT22;1747;48.884;9.160;2024-01-15T08:38:40;2.30;99.90
3466;DHT22;1747;48.884;9.160;2024-01-15T08:41:08;2.40;99.90
3466;DHT22;1747;48.884;9.160;2024-01-15T08:43:35;2.50;99.90
3466;DHT22;1747;48.884;9.160;2024-01-15T08:46:02;2.50;99.90
3466;DHT22;1747;48.884;9.160;2024-01-15T08:48:29;2.50;99.90
3466;DHT22;1747;48.884;9.160;2024-01-15T08:50:56;2.50;99.90
3466;DHT22;1747;48.884;9.160;2024-01-15T08:53:23;2.50;99.90
3466;DHT22;1747;48.884;9.160;2024-01-15T08:55:50;2.60;99.90
3466;DHT22;1747;48.884;9.160;2024-01-15T08:58:18;2.60;99.90
3466;DHT22;1747;48.884;9.160;2024-01-15T09:00:44;2.70;99.90
3466;DHT22;1747;48.884;9.160;2024-01-15T09:03:11;2.70;99.90
3466;DHT22;1747;48.884;9.160;2024-01-15T09:05:38;2.70;99.90
3466;DHT22;1747;48.884;9.160;2024-01-15T09:08:06;2.70;99.90
3466;DHT22;1747;48.884;9.160;2024-01-15T09:10:33;2.60;99.90
3466;DHT22;1747;48.884;9.160;2024-01-15T09:13:00;2.60;99.90
3466;DHT22;1747;48.884;9.160;2024-01-15T09:15:28;2.60;99.90
3466;DHT22;1747;48.884;9.160;2024-01-15T09:17:54;2.60;99.90
3466;DHT22;1747;48.884;9.160;2024-01-15T09:20:23;2.70;99.90
3466;DHT22;1747;48.884;9.160;2024-01-15T09:22:51;2.80;99.90
3466;DHT22;1747;48.884;9.160;2024-01-15T09:25:18;2.80;99.90
3466;DHT22;1747;48.884;9.160;2024-01-15T09:27:45;2.90;99.90
3466;DHT22;1747;48.884;9.160;2024-01-15T09:30:12;3.00;99.90
3466;DHT22;1747;48.884;9.160;2024-01-15T09:32:41;2.90;99.90
3466;DHT22;1747;48.884;9.160;2024-01-15T09:35:08;3.00;99.90
3466;DHT22;1747;48.884;9.160;2024-01-15T09:37:35;3.00;99.90
3466;DHT22;1747;48.884;9.160;2024-01-15T09:40:03;3.10;99.90
3466;DHT22;1747;48.884;9.160;2024-01-15T09:42:30;3.10;99.90
3466;DHT22;1747;48.884;9.160;2024-01-15T09:44:57;3.10;99.90
3466;DHT22;1747;48.884;9.160;2024-01-15T09:47:24;3.10;99.90
3466;DHT22;1747;48.884;9.160;2024-01-15T09:49:53;3.10;99.90
3466;DHT22;1747;48.884;9.160;2024-01-15T09:52:20;3.10;99.90
3466;DHT22;1747;48.884;9.160;2024-01-15T09:54:47;3.10;99.90
3466;DHT22;1747;48.884;9.160;2024-01-15T09:57:15;3.00;99.90
3466;DHT22;1747;48.884;9.160;2024-01-15T09:59:43;3.00;99.90
3466;DHT22;1747;48.884;9.160;2024-01-15T10:02:12;3.10;99.90
3466;DHT22;1747;48.884;9.160;2024-01-15T10:04:42;3.20;99.90
3466;DHT22;1747;48.884;9.160;2024-01-15T10:07:14;3.20;99.90
3466;DHT22;1747;48.884;9.160;2024-01-15T10:09:41;3.20;99.90
3466;DHT22;1747;48.884;9.160;2024-01-15T10:12:09;3.30;99.90
3466;DHT22;1747;48.884;9.160;2024-01-15T10:14:36;3.30;99.90
3466;DHT22;1747;48.884;9.160;2024-01-15T10:17:12;3.40;99.90
3466;DHT22;1747;48.884;9.160;2024-01-15T10:19:40;3.50;99.90
3466;DHT22;1747;48.884;9.160;2024-01-15T10:22:08;3.40;99.90
3466;DHT22;1747;48.884;9.160;2024-01-15T10:24:36;3.40;99.90
3466;DHT22;1747;48.884;9.160;2024-01-15T10:27:07;3.40;99.90
3466;DHT22;1747;48.884;9.160;2024-01-15T10:29:35;3.40;99.90
3466;DHT22;1747;48.884;9.160;2024-01-15T10:32:02;3.40;99.90
3466;DHT22;1747;48.884;9.160;2024-01-15T10:34:30;3.30;99.90
3466;DHT22;1747;48.884;9.160;2024-01-15T10:36:57;3.30;99.90
3466;DHT22;1747;48.884;9.160;2024-01-15T10:39:24;3.20;99.90
3466;DHT22;1747;48.884;9.160;2024-01-15T10:41:52;3.20;99.90
3466;DHT22;1747;48.884;9.160;2024-01-15T10:44:19;3.20;99.90
3466;DHT22;1747;48.884;9.160;2024-01-15T10:46:46;3.20;99.90
3466;DHT22;1747;48.884;9.160;2024-01-15T10:49:14;3.20;99.90
3466;DHT22;1747;48.884;9.160;2024-01-15T10:51:42;3.10;99.90
3466;DHT22;1747;48.884;9.160;2024-01-15T10:54:09;3.20;99.90
3466;DHT22;1747;48.884;9.160;2024-01-15T10:56:37;3.20;99.90
3466;DHT22;1747;48.884;9.160;2024-01-15T10:59:07;3.20;99.90
3466;DHT22;1747;48.884;9.160;2024-01-15T11:01:36;3.20;99.90
3466;DHT22;1747;48.884;9.160;2024-01-15T11:04:04;3.10;99.90
3466;DHT22;1747;48.884;9.160;2024-01-15T11:06:41;3.10;99.90
3466;DHT22;1747;48.884;9.160;2024-01-15T11:09:09;3.00;99.90
3466;DHT22;1747;48.884;9.160;2024-01-15T11:11:36;2.90;99.90
3466;DHT22;1747;48.884;9.160;2024-01-15T11:14:02;2.80;99.90
3466;DHT22;1747;48.884;9.160;2024-01-15T11:16:54;2.80;99.90
3466;DHT22;1747;48.884;9.160;2024-01-15T11:19:21;2.70;99.90
3466;DHT22;1747;48.884;9.160;2024-01-15T11:21:48;2.60;99.90
3466;DHT22;1747;48.884;9.160;2024-01-15T11:24:34;2.60;99.90
3466;DHT22;1747;48.884;9.160;2024-01-15T11:27:01;2.60;99.90
3466;DHT22;1747;48.884;9.160;2024-01-15T11:29:30;2.50;99.90
3466;DHT22;1747;48.884;9.160;2024-01-15T11:31:59;2.50;99.90
3466;DHT22;1747;48.884;9.160;2024-01-15T11:34:52;2.50;99.90
3466;DHT22;1747;48.884;9.160;2024-01-15T11:37:20;2.60;99.90
3466;DHT22;1747;48.884;9.160;2024-01-15T11:39:54;2.60;99.90
3466;DHT22;1747;48.884;9.160;2024-01-15T11:42:22;2.60;99.90
3466;DHT22;1747;48.884;9.160;2024-01-15T11:44:49;2.70;99.90
3466;DHT22;1747;48.884;9.160;2024-01-15T11:50:11;2.80;99.90
3466;DHT22;1747;48.884;9.160;2024-01-15T11:52:39;2.80;99.90
3466;DHT22;1747;48.884;9.160;2024-01-15T11:55:19;2.70;99.90
3466;DHT22;1747;48.884;9.160;2024-01-15T11:57:50;2.70;99.90
3466;DHT22;1747;48.884;9.160;2024-01-15T12:00:18;2.60;99.90
3466;DHT22;1747;48.884;9.160;2024-01-15T12:02:48;2.60;99.90
3466;DHT22;1747;48.884;9.160;2024-01-15T12:05:18;2.60;99.90
3466;DHT22;1747;48.884;9.160;2024-01-15T12:07:46;2.50;99.90
3466;DHT22;1747;48.884;9.160;2024-01-15T12:10:14;2.50;99.90
3466;DHT22;1747;48.884;9.160;2024-01-15T12:12:56;2.50;99.90
3466;DHT22;1747;48.884;9.160;2024-01-15T12:15:24;2.50;99.90
3466;DHT22;1747;48.884;9.160;2024-01-15T12:17:53;2.50;99.90
3466;DHT22;1747;48.884;9.160;2024-01-15T12:20:21;2.50;99.90
3466;DHT22;1747;48.884;9.160;2024-01-15T12:22:48;2.50;99.90
3466;DHT22;1747;48.884;9.160;2024-01-15T12:25:14;2.40;99.90
3466;DHT22;1747;48.884;9.160;2024-01-15T12:27:41;2.30;99.90
3466;DHT22;1747;48.884;9.160;2024-01-15T12:30:11;2.30;99.90
3466;DHT22;1747;48.884;9.160;2024-01-15T12:32:39;2.30;99.90
3466;DHT22;1747;48.884;9.160;2024-01-15T12:35:08;2.30;99.90
3466;DHT22;1747;48.884;9.160;2024-01-15T12:37:35;2.20;99.90
3466;DHT22;1747;48.884;9.160;2024-01-15T12:40:02;2.20;99.90
3466;DHT22;1747;48.884;9.160;2024-01-15T12:42:30;2.20;99.90
3466;DHT22;1747;48.884;9.160;2024-01-15T12:44:57;2.20;99.90
3466;DHT22;1747;48.884;9.160;2024-01-15T12:47:23;2.10;99.90
3466;DHT22;1747;48.884;9.160;2024-01-15T12:49:51;2.20;99.90
3466;DHT22;1747;48.884;9.160;2024-01-15T12:52:21;2.20;99.90
3466;DHT22;1747;48.884;9.160;2024-01-15T12:54:48;2.20;99.90
3466;DHT22;1747;48.884;9.160;2024-01-15T12:57:15;2.20;99.90
3466;DHT22;1747;48.884;9.160;2024-01-15T12:59:43;2.20;99.90
3466;DHT22;1747;48.884;9.160;2024-01-15T13:02:10;2.20;99.90
3466;DHT22;1747;48.884;9.160;2024-01-15T13:04:37;2.20;99.90
3466;DHT22;1747;48.884;9.160;2024-01-15T13:07:04;2.30;99.90
3466;DHT22;1747;48.884;9.160;2024-01-15T13:09:33;2.30;99.90
3466;DHT22;1747;48.884;9.160;2024-01-15T13:12:00;2.30;99.90
3466;DHT22;1747;48.884;9.160;2024-01-15T13:14:27;2.30;99.90
3466;DHT22;1747;48.884;9.160;2024-01-15T13:16:54;2.30;99.90
3466;DHT22;1747;48.884;9.160;2024-01-15T13:19:21;2.20;99.90
3466;DHT22;1747;48.884;9.160;2024-01-15T13:21:48;2.20;99.90
3466;DHT22;1747;48.884;9.160;2024-01-15T13:24:16;2.30;99.90
3466;DHT22;1747;48.884;9.160;2024-01-15T13:26:45;2.30;99.90
3466;DHT22;1747;48.884;9.160;2024-01-15T13:29:13;2.20;99.90
3466;DHT22;1747;48.884;9.160;2024-01-15T13:31:40;2.20;99.90
3466;DHT22;1747;48.884;9.160;2024-01-15T13:34:07;2.10;99.90
3466;DHT22;1747;48.884;9.160;2024-01-15T13:36:34;2.10;99.90
3466;DHT22;1747;48.884;9.160;2024-01-15T13:39:04;2.10;99.90
3466;DHT22;1747;48.884;9.160;2024-01-15T13:41:34;2.20;99.90
3466;DHT22;1747;48.884;9.160;2024-01-15T13:44:03;2.20;99.90
3466;DHT22;1747;48.884;9.160;2024-01-15T13:46:29;2.20;99.90
3466;DHT22;1747;48.884;9.160;2024-01-15T13:48:56;2.20;99.90
3466;DHT22;1747;48.884;9.160;2024-01-15T13:51:24;2.20;99.90
3466;DHT22;1747;48.884;9.160;2024-01-15T13:53:51;2.20;99.90
3466;DHT22;1747;48.884;9.160;2024-01-15T13:56:19;2.30;99.90
3466;DHT22;1747;48.884;9.160;2024-01-15T13:58:46;2.20;99.90
3466;DHT22;1747;48.884;9.160;2024-01-15T14:01:17;2.30;99.90
3466;DHT22;1747;48.884;9.160;2024-01-15T14:03:48;2.30;99.90
3466;DHT22;1747;48.884;9.160;2024-01-15T14:06:15;2.30;99.90
3466;DHT22;1747;48.884;9.160;2024-01-15T14:08:42;2.30;99.90
3466;DHT22;1747;48.884;9.160;2024-01-15T14:11:09;2.40;99.90
3466;DHT22;1747;48.884;9.160;2024-01-15T14:13:36;2.40;99.90
3466;DHT22;1747;48.884;9.160;2024-01-15T14:16:03;2.40;99.90
3466;DHT22;1747;48.884;9.160;2024-01-15T14:18:32;2.40;99.90
3466;DHT22;1747;48.884;9.160;2024-01-15T14:21:00;2.30;99.90
3466;DHT22;1747;48.884;9.160;2024-01-15T14:23:28;2.40;99.90
3466;DHT22;1747;48.884;9.160;2024-01-15T14:25:56;2.30;99.90
3466;DHT22;1747;48.884;9.160;2024-01-15T14:28:23;2.30;99.90
3466;DHT22;1747;48.884;9.160;2024-01-15T14:30:51;2.20;99.90
3466;DHT22;1747;48.884;9.160;2024-01-15T14:33:18;2.20;99.90
3466;DHT22;1747;48.884;9.160;2024-01-15T14:35:47;2.20;99.90
3466;DHT22;1747;48.884;9.160;2024-01-15T14:38:14;2.20;99.90
3466;DHT22;1747;48.884;9.160;2024-01-15T14:40:41;2.20;99.90
3466;DHT22;1747;48.884;9.160;2024-01-15T14:43:09;2.10;99.90
3466;DHT22;1747;48.884;9.160;2024-01-15T14:45:36;2.10;99.90
3466;DHT22;1747;48.884;9.160;2024-01-15T14:48:03;2.20;99.90
3466;DHT22;1747;48.884;9.160;2024-01-15T14:50:30;2.20;99.90
3466;DHT22;1747;48.884;9.160;2024-01-15T14:52:58;2.30;99.90
3466;DHT22;1747;48.884;9.160;2024-01-15T14:55:25;2.30;99.90
3466;DHT22;1747;48.884;9.160;2024-01-15T14:57:52;2.30;99.90
3466;DHT22;1747;48.884;9.160;2024-01-15T15:00:20;2.30;99.90
3466;DHT22;1747;48.884;9.160;2024-01-15T15:02:47;2.30;99.90
3466;DHT22;1747;48.884;9.160;2024-01-15T15:05:13;2.30;99.90
3466;DHT22;1747;48.884;9.160;2024-01-15T15:07:42;2.30;99.90
3466;DHT22;1747;48.884;9.160;2024-01-15T15:10:11;2.20;99.90
3466;DHT22;1747;48.884;9.160;2024-01-15T15:12:38;2.20;99.90
3466;DHT22;1747;48.884;9.160;2024-01-15T15:15:05;2.20;99.90
3466;DHT22;1747;48.884;9.160;2024-01-15T15:17:33;2.20;99.90
3466;DHT22;1747;48.884;9.160;2024-01-15T15:20:01;2.20;99.90
3466;DHT22;1747;48.884;9.160;2024-01-15T15:22:29;2.20;99.90
3466;DHT22;1747;48.884;9.160;2024-01-15T15:24:56;2.20;99.90
3466;DHT22;1747;48.884;9.160;2024-01-15T15:27:24;2.20;99.90
3466;DHT22;1747;48.884;9.160;2024-01-15T15:29:53;2.20;99.90
3466;DHT22;1747;48.884;9.160;2024-01-15T15:32:20;2.20;99.90
3466;DHT22;1747;48.884;9.160;2024-01-15T15:34:47;2.20;99.90
3466;DHT22;1747;48.884;9.160;2024-01-15T15:37:14;2.20;99.90
3466;DHT22;1747;48.884;9.160;2024-01-15T15:39:42;2.20;99.90
3466;DHT22;1747;48.884;9.160;2024-01-15T15:42:09;2.20;99.90
3466;DHT22;1747;48.884;9.160;2024-01-15T15:44:37;2.10;99.90
3466;DHT22;1747;48.884;9.160;2024-01-15T15:47:09;2.10;99.90
3466;DHT22;1747;48.884;9.160;2024-01-15T15:49:35;2.00;99.90
3466;DHT22;1747;48.884;9.160;2024-01-15T15:52:03;1.90;99.90
3466;DHT22;1747;48.884;9.160;2024-01-15T15:54:29;1.80;99.90
3466;DHT22;1747;48.884;9.160;2024-01-15T15:56:56;1.80;99.90
3466;DHT22;1747;48.884;9.160;2024-01-15T15:59:23;1.80;99.90
3466;DHT22;1747;48.884;9.160;2024-01-15T16:01:52;1.80;99.90
3466;DHT22;1747;48.884;9.160;2024-01-15T16:04:19;1.90;99.90
3466;DHT22;1747;48.884;9.160;2024-01-15T16:06:46;1.80;99.90
3466;DHT22;1747;48.884;9.160;2024-01-15T16:09:13;1.80;99.90
3466;DHT22;1747;48.884;9.160;2024-01-15T16:11:40;1.80;99.90
3466;DHT22;1747;48.884;9.160;2024-01-15T16:14:07;1.80;99.90
3466;DHT22;1747;48.884;9.160;2024-01-15T16:16:35;1.80;99.90
3466;DHT22;1747;48.884;9.160;2024-01-15T16:19:03;1.80;99.90
3466;DHT22;1747;48.884;9.160;2024-01-15T16:21:30;1.80;99.90